Time;durP1;ratioP1;P1;durP2;ratioP2;P2;SDS_P1;SDS_P2;PMS_P1;PMS_P2;Temp;Humidity;BMP_temperature;BMP_pressure;BME280_temperature;BME280_humidity;BME280_pressure;Samples;Min_cycle;Max_cycle;Signal;HPM_P1;HPM_P2
2023/07/16 00:01:52;;;;;;;11.40;2.50;;;19.70;53.40;;;;;;5031976;28;20410;-73
2023/07/16 00:04:17;;;;;;;4.18;2.55;;;19.70;53.30;;;;;;5032094;28;20942;-74
2023/07/16 00:06:43;;;;;;;4.03;2.50;;;19.80;52.30;;;;;;5032387;28;20386;-74
2023/07/16 00:09:09;;;;;;;5.30;2.70;;;19.80;53.00;;;;;;5033141;28;20465;-73
2023/07/16 00:11:34;;;;;;;6.30;2.90;;;19.80;52.10;;;;;;5031935;28;20401;-73
2023/07/16 00:14:01;;;;;;;7.83;3.00;;;19.90;52.50;;;;;;5032245;28;20394;-73
2023/07/16 00:16:27;;;;;;;4.72;2.50;;;19.90;52.40;;;;;;5032112;28;20406;-72
2023/07/16 00:18:53;;;;;;;5.53;2.80;;;19.90;51.10;;;;;;5031094;28;20894;-72
2023/07/16 00:21:18;;;;;;;5.93;3.00;;;20.00;50.80;;;;;;5031579;28;20884;-72
2023/07/16 00:23:44;;;;;;;5.95;2.60;;;20.20;49.10;;;;;;5032122;28;20379;-73
2023/07/16 00:26:09;;;;;;;9.33;2.67;;;20.20;49.10;;;;;;5032095;28;20485;-74
2023/07/16 00:28:35;;;;;;;8.10;2.72;;;20.10;49.40;;;;;;5033268;28;20445;-73
2023/07/16 00:31:01;;;;;;;6.47;2.77;;;20.10;49.60;;;;;;5034660;28;20403;-73
2023/07/16 00:33:26;;;;;;;9.25;2.80;;;19.80;51.90;;;;;;5035621;28;20460;-73
2023/07/16 00:35:52;;;;;;;11.48;2.83;;;19.80;52.00;;;;;;5034479;28;21016;-73
2023/07/16 00:38:18;;;;;;;7.30;2.87;;;19.60;53.70;;;;;;5034521;28;20748;-73
2023/07/16 00:40:44;;;;;;;9.85;2.88;;;19.50;54.90;;;;;;5034142;28;20387;-74
2023/07/16 00:43:10;;;;;;;7.72;2.75;;;19.40;56.40;;;;;;5033215;28;20914;-74
2023/07/16 00:45:36;;;;;;;5.88;2.90;;;19.30;57.80;;;;;;5032892;28;20379;-74
2023/07/16 00:48:04;;;;;;;9.57;3.60;;;19.10;59.40;;;;;;5031637;28;20394;-74
2023/07/16 00:50:33;;;;;;;4.05;3.05;;;18.80;61.20;;;;;;5031414;28;20383;-72
2023/07/16 00:53:02;;;;;;;6.90;4.00;;;18.80;62.70;;;;;;5031271;28;20433;-72
2023/07/16 00:55:29;;;;;;;9.73;3.90;;;18.80;62.80;;;;;;5031335;28;20391;-73
2023/07/16 00:58:01;;;;;;;9.15;3.88;;;18.70;64.40;;;;;;5031189;28;20395;-72
2023/07/16 01:00:27;;;;;;;10.33;3.90;;;18.70;64.60;;;;;;5031552;28;20449;-74
2023/07/16 01:02:52;;;;;;;9.00;4.60;;;18.40;67.10;;;;;;5031096;28;20393;-74
2023/07/16 01:05:18;;;;;;;11.10;5.60;;;18.30;69.70;;;;;;5031606;28;20379;-74
2023/07/16 01:07:59;;;;;;;9.60;5.27;;;18.40;69.60;;;;;;5038882;28;20480;-74
2023/07/16 01:10:26;;;;;;;9.23;5.50;;;18.40;69.90;;;;;;5044152;28;20407;-75
2023/07/16 01:12:55;;;;;;;11.80;5.93;;;18.30;70.50;;;;;;5014574;28;20391;-73
2023/07/16 01:15:20;;;;;;;12.40;6.10;;;18.20;72.00;;;;;;5032278;28;20395;-76
2023/07/16 01:17:46;;;;;;;12.73;5.53;;;18.20;73.20;;;;;;5028124;28;20937;-76
2023/07/16 01:20:12;;;;;;;13.57;6.50;;;18.10;73.80;;;;;;5031310;28;20904;-76
2023/07/16 01:23:10;;;;;;;12.93;5.70;;;18.30;71.40;;;;;;5033106;28;20960;-76
2023/07/16 01:26:02;;;;;;;12.05;6.00;;;18.30;72.00;;;;;;4994101;28;20433;-74
2023/07/16 01:28:49;;;;;;;11.98;5.72;;;18.40;70.70;;;;;;4994919;28;20385;-76
2023/07/16 01:31:16;;;;;;;12.00;5.00;;;18.60;69.00;;;;;;5015164;28;20463;-75
2023/07/16 01:33:42;;;;;;;10.27;4.68;;;18.90;65.60;;;;;;4999584;28;20420;-75
2023/07/16 01:36:09;;;;;;;7.40;4.50;;;18.80;65.60;;;;;;5034499;28;20435;-74
2023/07/16 01:38:35;;;;;;;8.53;4.23;;;18.70;66.50;;;;;;5034652;28;20884;-75
2023/07/16 01:41:01;;;;;;;11.70;4.50;;;18.60;66.90;;;;;;5036735;28;20390;-74
2023/07/16 01:43:27;;;;;;;11.27;4.03;;;18.60;65.80;;;;;;5038750;28;20472;-75
2023/07/16 01:45:52;;;;;;;7.10;3.53;;;18.50;66.00;;;;;;5035367;28;20390;-75
2023/07/16 01:48:36;;;;;;;8.13;3.60;;;18.50;64.60;;;;;;5035069;28;20440;-75
2023/07/16 01:51:03;;;;;;;8.40;3.63;;;18.30;66.00;;;;;;5000196;28;20556;-76
2023/07/16 01:53:29;;;;;;;10.38;3.50;;;18.10;67.90;;;;;;5034497;28;20387;-74
2023/07/16 01:55:54;;;;;;;4.47;3.40;;;18.10;68.10;;;;;;5034363;28;20414;-74
2023/07/16 01:58:20;;;;;;;6.25;3.17;;;18.00;69.50;;;;;;5034558;28;20904;-73
2023/07/16 02:00:48;;;;;;;5.55;3.10;;;17.90;69.20;;;;;;5016536;28;20386;-75
2023/07/16 02:03:13;;;;;;;10.63;3.30;;;18.20;67.60;;;;;;5033713;28;20391;-74
2023/07/16 02:05:39;;;;;;;6.70;2.87;;;18.10;66.70;;;;;;5033903;28;20387;-74
2023/07/16 02:08:04;;;;;;;8.18;3.45;;;18.10;66.50;;;;;;5033573;28;20411;-74
2023/07/16 02:10:30;;;;;;;11.40;2.70;;;18.10;66.40;;;;;;5033787;28;20508;-75
2023/07/16 02:12:56;;;;;;;7.55;3.22;;;18.10;65.20;;;;;;5033562;28;20383;-74
2023/07/16 02:15:22;;;;;;;7.80;2.87;;;18.20;64.50;;;;;;5033658;28;20386;-75
2023/07/16 02:17:47;;;;;;;9.65;3.10;;;18.20;62.50;;;;;;5033535;28;20438;-72
2023/07/16 02:20:13;;;;;;;10.15;3.67;;;18.20;62.30;;;;;;5033558;28;20713;-75
2023/07/16 02:22:39;;;;;;;11.13;3.10;;;18.20;62.20;;;;;;5033465;28;20841;-74
2023/07/16 02:25:05;;;;;;;10.47;3.00;;;18.20;62.50;;;;;;5033505;28;20776;-74
2023/07/16 02:27:31;;;;;;;9.30;3.13;;;18.20;61.90;;;;;;5033686;28;20395;-75
2023/07/16 02:29:56;;;;;;;8.02;3.40;;;18.30;61.60;;;;;;5033651;28;20964;-75
2023/07/16 02:32:22;;;;;;;11.10;3.70;;;18.20;62.20;;;;;;5033579;28;20426;-75
2023/07/16 02:34:48;;;;;;;8.90;3.10;;;18.20;61.00;;;;;;5033910;28;20387;-75
2023/07/16 02:37:14;;;;;;;10.10;2.90;;;18.20;61.20;;;;;;5033682;28;20414;-75
2023/07/16 02:39:41;;;;;;;5.20;2.40;;;18.20;60.30;;;;;;5033061;28;20383;-75
2023/07/16 02:42:07;;;;;;;13.38;3.40;;;18.20;60.40;;;;;;5037865;28;20390;-74
2023/07/16 02:44:32;;;;;;;9.60;3.10;;;18.10;60.20;;;;;;5042655;28;20383;-74
2023/07/16 02:46:58;;;;;;;11.38;3.35;;;18.00;60.90;;;;;;5042774;28;20425;-73
2023/07/16 02:49:23;;;;;;;10.18;3.20;;;18.10;60.30;;;;;;5018143;28;20401;-74
2023/07/16 02:51:49;;;;;;;9.50;3.47;;;18.10;59.60;;;;;;5033085;28;20387;-73
2023/07/16 02:54:15;;;;;;;8.25;2.40;;;18.10;58.90;;;;;;5033057;28;20778;-73
2023/07/16 02:56:40;;;;;;;9.23;3.05;;;18.00;59.10;;;;;;5032844;28;20494;-76
2023/07/16 02:59:06;;;;;;;9.80;3.07;;;18.10;58.30;;;;;;5032926;28;20490;-74
2023/07/16 03:01:31;;;;;;;8.63;3.10;;;18.00;57.00;;;;;;5032776;28;20467;-74
2023/07/16 03:03:57;;;;;;;11.07;3.20;;;18.00;56.80;;;;;;5032882;28;20391;-74
2023/07/16 03:06:23;;;;;;;8.27;2.83;;;18.00;55.00;;;;;;5032619;28;20879;-73
2023/07/16 03:08:48;;;;;;;13.50;3.10;;;17.90;54.80;;;;;;5046413;22;20504;-74
2023/07/16 03:11:14;;;;;;;8.10;2.63;;;18.00;54.20;;;;;;5032554;28;20415;-74
2023/07/16 03:13:39;;;;;;;9.75;2.70;;;18.00;52.20;;;;;;5032519;28;20751;-74
2023/07/16 03:16:05;;;;;;;7.43;2.90;;;18.00;52.70;;;;;;5032238;28;20434;-74
2023/07/16 03:18:31;;;;;;;7.75;2.80;;;18.00;50.40;;;;;;5032279;28;20466;-73
2023/07/16 03:20:57;;;;;;;13.93;3.70;;;18.00;49.50;;;;;;5032113;28;20387;-74
2023/07/16 03:23:23;;;;;;;9.98;3.00;;;18.00;49.20;;;;;;5032365;28;20387;-74
2023/07/16 03:25:49;;;;;;;12.63;3.38;;;18.00;47.30;;;;;;5032215;28;20395;-74
2023/07/16 03:28:15;;;;;;;8.38;3.10;;;18.00;46.80;;;;;;5031916;28;20402;-74
2023/07/16 03:30:44;;;;;;;6.93;2.60;;;17.90;48.20;;;;;;5032033;28;20383;-74
2023/07/16 03:33:10;;;;;;;7.32;3.22;;;17.90;46.10;;;;;;5031632;28;20399;-74
2023/07/16 03:35:35;;;;;;;7.85;3.20;;;18.00;46.30;;;;;;5032143;28;20402;-74
2023/07/16 03:38:01;;;;;;;8.48;3.00;;;17.90;46.10;;;;;;5031837;28;20395;-74
2023/07/16 03:40:27;;;;;;;9.27;3.10;;;18.00;45.00;;;;;;5032030;28;20424;-74
2023/07/16 03:42:53;;;;;;;7.00;3.17;;;18.00;45.10;;;;;;5032337;28;20444;-74
2023/07/16 03:45:19;;;;;;;11.70;3.40;;;17.90;45.00;;;;;;5032039;28;20717;-74
2023/07/16 03:47:45;;;;;;;8.07;3.30;;;17.80;45.60;;;;;;5031907;28;20393;-74
2023/07/16 03:50:11;;;;;;;8.73;3.20;;;17.80;45.50;;;;;;5031578;28;20474;-72
2023/07/16 03:52:36;;;;;;;11.32;3.53;;;17.90;44.10;;;;;;5013861;28;20834;-73
2023/07/16 03:55:02;;;;;;;13.53;3.37;;;17.90;43.80;;;;;;5033946;28;20398;-73
2023/07/16 03:57:29;;;;;;;8.20;3.25;;;17.90;43.40;;;;;;5031608;28;20891;-73
2023/07/16 03:59:54;;;;;;;9.85;3.00;;;17.90;43.30;;;;;;5031597;28;20805;-73
2023/07/16 04:02:20;;;;;;;7.53;3.35;;;17.90;43.30;;;;;;5031585;28;20463;-74
2023/07/16 04:04:46;;;;;;;8.70;2.90;;;17.90;43.10;;;;;;5031605;28;20901;-73
2023/07/16 04:07:12;;;;;;;7.53;3.45;;;17.90;43.40;;;;;;5031454;28;20867;-73
2023/07/16 04:09:38;;;;;;;7.63;3.22;;;17.80;42.90;;;;;;5031462;28;20460;-74
2023/07/16 04:12:05;;;;;;;10.70;3.88;;;17.80;41.90;;;;;;5031161;28;20391;-73
2023/07/16 04:14:30;;;;;;;7.05;2.70;;;17.90;40.50;;;;;;5031444;28;20413;-74
2023/07/16 04:16:56;;;;;;;8.10;3.40;;;17.90;40.60;;;;;;5031310;28;20403;-73
2023/07/16 04:19:21;;;;;;;9.27;3.43;;;17.90;40.70;;;;;;5031346;28;20398;-74
2023/07/16 04:21:47;;;;;;;6.57;3.20;;;17.90;40.50;;;;;;5031222;28;20390;-73
2023/07/16 04:24:13;;;;;;;8.90;3.30;;;18.00;39.80;;;;;;5031334;28;20405;-73
2023/07/16 04:26:38;;;;;;;8.30;3.17;;;18.00;40.20;;;;;;5031113;28;20926;-73
2023/07/16 04:29:04;;;;;;;11.40;3.63;;;18.00;40.00;;;;;;5030815;28;20764;-73
2023/07/16 04:31:29;;;;;;;16.10;3.80;;;18.00;39.80;;;;;;5031011;28;20827;-73
2023/07/16 04:33:55;;;;;;;11.03;3.30;;;18.00;40.80;;;;;;5031010;28;20720;-73
2023/07/16 04:36:20;;;;;;;10.90;3.13;;;18.00;39.70;;;;;;5032074;28;20481;-73
2023/07/16 04:38:46;;;;;;;7.70;3.40;;;18.00;38.80;;;;;;5053071;28;20471;-73
2023/07/16 04:41:12;;;;;;;13.93;4.10;;;18.20;38.40;;;;;;5054350;28;20394;-72
2023/07/16 04:43:38;;;;;;;10.98;3.50;;;18.30;37.90;;;;;;5045861;28;20379;-73
2023/07/16 04:46:04;;;;;;;9.55;4.03;;;18.20;38.40;;;;;;5038214;28;20419;-74
2023/07/16 04:48:29;;;;;;;14.80;3.70;;;18.10;38.90;;;;;;5032733;28;20387;-73
2023/07/16 04:50:55;;;;;;;15.27;3.90;;;18.10;38.60;;;;;;5030418;28;20458;-73
2023/07/16 04:53:22;;;;;;;13.80;3.50;;;18.10;38.90;;;;;;5030518;28;21012;-73
2023/07/16 04:55:47;;;;;;;10.13;3.80;;;18.10;38.50;;;;;;5030877;28;20448;-73
2023/07/16 04:58:13;;;;;;;12.37;3.90;;;18.20;38.20;;;;;;5030338;28;20787;-73
2023/07/16 05:00:38;;;;;;;10.90;3.60;;;18.20;38.40;;;;;;5030381;28;20434;-74
2023/07/16 05:03:04;;;;;;;10.55;3.50;;;18.10;38.80;;;;;;5029801;28;20878;-73
2023/07/16 05:05:29;;;;;;;12.43;3.83;;;18.20;39.10;;;;;;5012787;28;20771;-74
2023/07/16 05:07:55;;;;;;;11.27;4.00;;;18.30;38.90;;;;;;5030507;28;20422;-74
2023/07/16 05:10:21;;;;;;;8.25;3.70;;;18.30;38.80;;;;;;5030276;28;20399;-73
2023/07/16 05:12:46;;;;;;;10.25;3.80;;;18.40;38.80;;;;;;5030311;28;20402;-73
2023/07/16 05:15:12;;;;;;;9.77;3.20;;;18.30;38.60;;;;;;5030258;28;20395;-73
2023/07/16 05:17:38;;;;;;;10.60;4.57;;;18.40;38.20;;;;;;5030174;28;20398;-74
2023/07/16 05:20:04;;;;;;;7.57;3.67;;;18.50;38.10;;;;;;5030276;28;20415;-73
2023/07/16 05:22:30;;;;;;;12.00;3.80;;;18.60;38.20;;;;;;5030183;28;20394;-74
2023/07/16 05:24:55;;;;;;;7.75;3.70;;;18.60;37.10;;;;;;5030229;28;20384;-73
2023/07/16 05:27:21;;;;;;;8.15;3.50;;;18.60;36.70;;;;;;5030278;28;20391;-73
2023/07/16 05:29:47;;;;;;;11.40;4.40;;;18.60;37.00;;;;;;5012429;28;20968;-74
2023/07/16 05:32:13;;;;;;;9.45;4.00;;;18.60;36.80;;;;;;5029810;28;20401;-74
2023/07/16 05:34:39;;;;;;;13.50;4.50;;;18.70;36.00;;;;;;5030239;28;20735;-74
2023/07/16 05:37:05;;;;;;;9.43;4.30;;;18.80;35.50;;;;;;5030040;28;20403;-74
2023/07/16 05:39:30;;;;;;;15.90;4.28;;;18.80;35.60;;;;;;5030043;28;20393;-73
2023/07/16 05:41:56;;;;;;;10.85;4.15;;;18.90;34.70;;;;;;5029811;28;20466;-74
2023/07/16 05:44:22;;;;;;;13.57;4.50;;;19.00;33.80;;;;;;5030225;28;20893;-73
2023/07/16 05:46:47;;;;;;;14.90;4.70;;;19.00;33.80;;;;;;5030144;28;20871;-73
2023/07/16 05:49:13;;;;;;;15.85;4.43;;;19.00;33.20;;;;;;5012422;28;20446;-74
2023/07/16 05:51:39;;;;;;;11.25;4.75;;;19.00;33.50;;;;;;5030706;28;20387;-74
2023/07/16 05:54:04;;;;;;;13.35;4.50;;;19.00;32.90;;;;;;5031449;28;20767;-74
2023/07/16 05:56:30;;;;;;;13.50;5.00;;;19.00;32.70;;;;;;5031426;28;20413;-74
2023/07/16 05:58:56;;;;;;;12.23;5.00;;;19.00;31.80;;;;;;5031515;28;20477;-74
2023/07/16 06:01:21;;;;;;;15.45;5.50;;;19.10;31.50;;;;;;5012559;28;20395;-74
2023/07/16 06:03:47;;;;;;;16.20;5.40;;;19.10;30.60;;;;;;5030105;28;20391;-74
2023/07/16 06:06:13;;;;;;;11.07;4.72;;;19.20;30.30;;;;;;5029803;28;20379;-74
2023/07/16 06:08:38;;;;;;;10.40;5.47;;;19.20;30.00;;;;;;5029967;28;20776;-73
2023/07/16 06:11:04;;;;;;;12.43;4.90;;;19.20;30.20;;;;;;5030217;28;20392;-74
2023/07/16 06:13:30;;;;;;;17.05;5.80;;;19.20;30.40;;;;;;5030309;28;20470;-74
2023/07/16 06:15:55;;;;;;;13.82;5.20;;;19.30;30.20;;;;;;5031577;28;20499;-74
2023/07/16 06:18:21;;;;;;;20.27;5.40;;;19.30;29.00;;;;;;5033688;28;20457;-74
2023/07/16 06:20:46;;;;;;;16.20;5.43;;;19.30;29.40;;;;;;5033477;28;20808;-74
2023/07/16 06:23:13;;;;;;;12.38;5.50;;;19.30;28.80;;;;;;5033469;28;20448;-74
2023/07/16 06:25:40;;;;;;;15.93;5.95;;;19.30;29.00;;;;;;5016400;28;20391;-74
2023/07/16 06:28:06;;;;;;;17.70;6.17;;;19.50;28.80;;;;;;5015973;28;20471;-74
2023/07/16 06:30:32;;;;;;;13.40;5.90;;;19.50;27.90;;;;;;5033499;28;20466;-74
2023/07/16 06:32:58;;;;;;;14.38;5.60;;;19.50;28.20;;;;;;5033682;28;20383;-74
2023/07/16 06:35:24;;;;;;;11.13;5.47;;;19.60;27.70;;;;;;5033278;28;20871;-74
2023/07/16 06:37:49;;;;;;;14.48;5.75;;;19.70;28.00;;;;;;5033292;28;20402;-73
2023/07/16 06:40:15;;;;;;;13.60;5.30;;;19.70;26.50;;;;;;5033528;28;20387;-75
2023/07/16 06:42:41;;;;;;;12.87;5.40;;;19.70;27.30;;;;;;5016859;28;20446;-74
2023/07/16 06:45:07;;;;;;;9.27;5.40;;;19.80;26.90;;;;;;5015299;28;20938;-74
2023/07/16 06:47:32;;;;;;;14.20;6.40;;;19.80;26.30;;;;;;5033259;28;20437;-74
2023/07/16 06:49:58;;;;;;;17.23;5.57;;;19.80;26.00;;;;;;5033127;28;20395;-74
2023/07/16 06:52:27;;;;;;;15.80;6.57;;;19.90;26.00;;;;;;5032639;28;20387;-72
2023/07/16 06:54:53;;;;;;;14.68;6.35;;;20.10;25.70;;;;;;5032951;28;20380;-73
2023/07/16 06:57:19;;;;;;;14.95;5.93;;;20.20;25.20;;;;;;5032870;28;20814;-73
2023/07/16 06:59:44;;;;;;;17.20;6.03;;;20.20;24.60;;;;;;5032680;28;20395;-73
2023/07/16 07:02:10;;;;;;;13.88;5.70;;;20.10;24.50;;;;;;5034439;28;20383;-74
2023/07/16 07:04:36;;;;;;;17.58;6.63;;;20.20;24.90;;;;;;5038765;28;20387;-74
2023/07/16 07:07:01;;;;;;;10.90;5.75;;;20.20;23.90;;;;;;5036036;28;20875;-74
2023/07/16 07:09:27;;;;;;;17.60;6.00;;;20.20;23.60;;;;;;5036161;28;20397;-73
2023/07/16 07:11:52;;;;;;;16.90;6.63;;;20.20;23.40;;;;;;5032497;28;20395;-73
2023/07/16 07:14:18;;;;;;;14.67;6.20;;;20.10;23.50;;;;;;5032488;28;21141;-73
2023/07/16 07:16:43;;;;;;;13.87;6.40;;;20.00;23.80;;;;;;5032479;28;20849;-74
2023/07/16 07:19:09;;;;;;;16.13;6.65;;;20.10;24.10;;;;;;5032463;28;20890;-73
2023/07/16 07:21:35;;;;;;;16.50;6.80;;;20.20;23.70;;;;;;5014403;28;20887;-72
2023/07/16 07:24:00;;;;;;;18.33;6.63;;;20.30;23.50;;;;;;5032329;28;20437;-73
2023/07/16 07:26:26;;;;;;;15.65;6.43;;;20.30;23.60;;;;;;5032715;28;20395;-73
2023/07/16 07:28:51;;;;;;;17.60;6.73;;;20.40;23.00;;;;;;5032294;28;20471;-73
2023/07/16 07:31:17;;;;;;;20.63;6.97;;;20.30;23.00;;;;;;5031875;28;20422;-72
2023/07/16 07:33:42;;;;;;;18.27;6.50;;;20.40;23.50;;;;;;5032330;28;20379;-73
2023/07/16 07:36:08;;;;;;;16.50;6.50;;;20.40;22.80;;;;;;5032237;28;20460;-73
2023/07/16 07:38:33;;;;;;;13.95;6.38;;;20.40;22.40;;;;;;5032185;28;20473;-73
2023/07/16 07:40:59;;;;;;;14.60;6.80;;;20.30;22.30;;;;;;5031798;28;20438;-73
2023/07/16 07:43:25;;;;;;;14.67;6.07;;;20.40;22.90;;;;;;5032198;28;20475;-73
2023/07/16 07:45:50;;;;;;;13.52;6.85;;;20.40;23.10;;;;;;5031889;28;20383;-73
2023/07/16 07:48:16;;;;;;;13.97;7.03;;;20.50;22.70;;;;;;5031878;28;20398;-73
2023/07/16 07:50:41;;;;;;;10.57;6.10;;;20.50;22.40;;;;;;5031945;28;20379;-73
2023/07/16 07:53:07;;;;;;;20.08;6.95;;;20.60;22.00;;;;;;5032003;28;20410;-73
2023/07/16 07:55:35;;;;;;;12.60;5.87;;;20.70;21.10;;;;;;5031863;28;20441;-73
2023/07/16 07:58:00;;;;;;;15.55;7.00;;;20.60;20.60;;;;;;5031470;28;20406;-73
2023/07/16 08:00:26;;;;;;;13.82;6.10;;;20.70;21.00;;;;;;5031660;28;20391;-73
2023/07/16 08:02:51;;;;;;;12.23;6.33;;;20.70;20.90;;;;;;5031390;28;20875;-74
2023/07/16 08:05:17;;;;;;;12.23;6.00;;;20.70;21.70;;;;;;5031579;28;20379;-74
2023/07/16 08:07:43;;;;;;;18.70;6.82;;;20.70;21.20;;;;;;5031723;28;20403;-73
2023/07/16 08:10:08;;;;;;;15.07;6.83;;;20.70;21.30;;;;;;5031305;28;20398;-74
2023/07/16 08:12:34;;;;;;;14.77;6.70;;;20.80;20.90;;;;;;5031291;28;20860;-73
2023/07/16 08:15:00;;;;;;;13.50;6.28;;;20.90;20.40;;;;;;5031512;28;20474;-74
2023/07/16 08:17:25;;;;;;;18.40;6.50;;;21.00;20.20;;;;;;5031342;28;20435;-74
2023/07/16 08:19:51;;;;;;;15.13;6.20;;;21.00;20.30;;;;;;5031356;28;20386;-73
2023/07/16 08:22:17;;;;;;;13.35;6.45;;;21.20;20.00;;;;;;5031500;28;20733;-73
2023/07/16 08:24:42;;;;;;;14.98;5.88;;;21.40;19.80;;;;;;5031357;28;20422;-74
2023/07/16 08:27:08;;;;;;;12.93;6.10;;;21.60;18.90;;;;;;5031406;28;20465;-74
2023/07/16 08:29:36;;;;;;;11.27;5.90;;;21.70;18.80;;;;;;5031241;28;20441;-74
2023/07/16 08:32:03;;;;;;;11.75;5.40;;;22.00;17.90;;;;;;5030914;28;20394;-74
2023/07/16 08:34:28;;;;;;;13.02;5.72;;;22.10;17.80;;;;;;5031795;28;20420;-74
2023/07/16 08:36:54;;;;;;;11.13;5.20;;;21.90;18.30;;;;;;5031345;28;20407;-74
2023/07/16 08:39:20;;;;;;;12.10;5.63;;;22.00;18.00;;;;;;5030436;28;20422;-74
2023/07/16 08:41:46;;;;;;;12.02;5.70;;;22.10;17.50;;;;;;5030770;28;20440;-74
2023/07/16 08:44:12;;;;;;;12.95;5.30;;;22.00;17.20;;;;;;5031154;28;20380;-74
2023/07/16 08:46:39;;;;;;;10.85;5.30;;;21.80;17.60;;;;;;5031137;28;20474;-73
2023/07/16 08:49:07;;;;;;;12.82;5.47;;;21.80;17.40;;;;;;5030700;28;20391;-74
2023/07/16 08:51:34;;;;;;;12.20;5.15;;;22.10;17.00;;;;;;5030779;28;20469;-72
2023/07/16 08:54:00;;;;;;;10.52;5.07;;;22.90;16.50;;;;;;5030990;28;20452;-74
2023/07/16 08:56:26;;;;;;;12.67;5.47;;;23.10;15.60;;;;;;5030837;28;20406;-74
2023/07/16 08:58:56;;;;;;;12.07;4.82;;;23.30;14.80;;;;;;5032254;28;20673;-74
2023/07/16 09:01:21;;;;;;;8.15;4.85;;;23.50;14.20;;;;;;5030715;28;20383;-74
2023/07/16 09:03:47;;;;;;;11.77;5.80;;;23.60;14.20;;;;;;5030563;28;20441;-74
2023/07/16 09:06:13;;;;;;;11.77;4.87;;;23.70;13.60;;;;;;5030796;28;20398;-74
2023/07/16 09:11:11;;;;;;;10.45;5.10;;;23.80;13.70;;;;;;5009899;28;20449;-75
2023/07/16 09:13:37;;;;;;;10.60;4.60;;;23.90;13.70;;;;;;5012077;28;20456;-75
2023/07/16 09:16:02;;;;;;;14.63;5.70;;;24.00;13.10;;;;;;5013055;28;20438;-74
2023/07/16 09:18:28;;;;;;;12.77;4.83;;;23.80;13.30;;;;;;5013915;28;20396;-75
2023/07/16 09:21:05;;;;;;;11.48;5.20;;;23.90;13.60;;;;;;5013181;28;20447;-75
2023/07/16 09:23:33;;;;;;;17.30;5.30;;;24.00;12.80;;;;;;5012413;28;20723;-76
2023/07/16 09:25:59;;;;;;;11.00;4.95;;;24.10;12.60;;;;;;5011284;28;20389;-75
2023/07/16 09:28:25;;;;;;;10.25;5.10;;;24.00;13.00;;;;;;5011641;28;20427;-75
2023/07/16 09:30:52;;;;;;;12.60;4.90;;;24.10;13.00;;;;;;5011886;28;20742;-71
2023/07/16 09:33:25;;;;;;;10.98;5.00;;;24.30;12.10;;;;;;5010471;28;20392;-73
2023/07/16 09:35:51;;;;;;;16.30;4.80;;;24.30;12.60;;;;;;5012132;28;20779;-75
2023/07/16 09:38:18;;;;;;;12.25;5.10;;;24.50;12.20;;;;;;5012398;28;20396;-75
2023/07/16 09:40:44;;;;;;;9.68;5.20;;;24.50;11.70;;;;;;5013047;28;20384;-75
2023/07/16 09:43:12;;;;;;;13.07;5.00;;;24.60;12.30;;;;;;5011358;28;20647;-74
2023/07/16 09:45:37;;;;;;;9.82;5.30;;;24.50;12.30;;;;;;5011666;28;20431;-75
2023/07/16 09:48:03;;;;;;;9.65;4.80;;;24.50;12.60;;;;;;5011802;28;20389;-75
2023/07/16 09:50:34;;;;;;;11.63;5.13;;;24.20;12.30;;;;;;5014171;28;20412;-75
2023/07/16 09:53:00;;;;;;;10.40;5.10;;;23.80;13.20;;;;;;5015704;28;20479;-75
2023/07/16 09:55:26;;;;;;;10.47;4.90;;;23.70;13.10;;;;;;5015470;28;20423;-74
2023/07/16 09:57:55;;;;;;;12.35;4.90;;;23.80;13.10;;;;;;5015288;28;20404;-74
2023/07/16 10:00:22;;;;;;;13.20;5.05;;;24.00;13.10;;;;;;5014173;28;20765;-74
2023/07/16 10:02:49;;;;;;;12.40;5.28;;;24.40;12.50;;;;;;5016103;28;20385;-73
2023/07/16 10:05:16;;;;;;;10.02;5.20;;;24.50;12.80;;;;;;5015901;28;20900;-75
2023/07/16 10:07:43;;;;;;;17.45;4.70;;;24.70;12.80;;;;;;5014717;28;20396;-74
2023/07/16 10:10:10;;;;;;;10.70;4.18;;;24.70;11.50;;;;;;5015373;28;20403;-74
2023/07/16 10:12:37;;;;;;;9.23;4.60;;;24.70;11.70;;;;;;5016491;28;20907;-74
2023/07/16 10:15:06;;;;;;;10.02;4.90;;;24.40;12.40;;;;;;5016120;28;20512;-74
2023/07/16 10:17:32;;;;;;;9.30;5.10;;;24.30;12.40;;;;;;5015492;28;20404;-75
2023/07/16 10:20:00;;;;;;;8.43;4.50;;;24.30;13.20;;;;;;5017973;28;20471;-75
2023/07/16 10:22:33;;;;;;;12.55;4.63;;;24.70;12.10;;;;;;5019216;28;20385;-73
2023/07/16 10:24:59;;;;;;;8.73;4.20;;;25.00;11.30;;;;;;5015954;28;20388;-75
2023/07/16 10:27:32;;;;;;;13.48;5.03;;;24.80;11.10;;;;;;5018688;28;20397;-75
2023/07/16 10:29:58;;;;;;;9.68;4.60;;;24.50;12.30;;;;;;5016658;28;20393;-76
2023/07/16 10:32:28;;;;;;;11.32;4.70;;;24.50;12.60;;;;;;5016415;28;20400;-74
2023/07/16 10:34:53;;;;;;;8.95;4.90;;;24.60;12.80;;;;;;5031126;28;20391;-73
2023/07/16 10:37:19;;;;;;;11.57;5.00;;;24.70;12.10;;;;;;5026339;28;20436;-75
2023/07/16 10:39:49;;;;;;;9.30;4.60;;;25.00;11.70;;;;;;5015911;28;20893;-73
2023/07/16 10:42:16;;;;;;;10.60;4.70;;;24.90;11.50;;;;;;5014426;28;20408;-73
2023/07/16 10:44:42;;;;;;;7.13;4.10;;;25.20;11.50;;;;;;5015201;28;20436;-73
2023/07/16 10:47:09;;;;;;;9.57;4.40;;;25.20;11.00;;;;;;5014866;28;20400;-73
2023/07/16 10:49:34;;;;;;;8.30;4.40;;;25.20;10.90;;;;;;5044010;28;20413;-74
2023/07/16 10:52:01;;;;;;;10.60;4.60;;;25.50;10.90;;;;;;5015424;28;20530;-73
2023/07/16 10:54:26;;;;;;;8.70;4.47;;;25.70;9.40;;;;;;5015588;28;20423;-74
2023/07/16 10:56:52;;;;;;;8.98;4.10;;;25.80;9.90;;;;;;5015386;28;20843;-74
2023/07/16 10:59:18;;;;;;;8.73;4.00;;;26.20;8.70;;;;;;5013871;28;20395;-73
2023/07/16 11:01:45;;;;;;;10.17;4.30;;;26.40;8.40;;;;;;5015099;28;20814;-74
2023/07/16 11:04:10;;;;;;;11.15;4.97;;;26.40;8.50;;;;;;5025151;28;20879;-74
2023/07/16 11:06:36;;;;;;;11.00;4.50;;;26.30;9.20;;;;;;5037723;28;20386;-74
2023/07/16 11:09:09;;;;;;;10.63;4.38;;;26.10;8.80;;;;;;5035650;28;20395;-74
2023/07/16 11:11:35;;;;;;;12.23;4.50;;;26.10;8.80;;;;;;5036143;28;20841;-74
2023/07/16 11:14:04;;;;;;;11.80;4.57;;;26.00;9.10;;;;;;5035878;28;20418;-74
2023/07/16 11:16:34;;;;;;;7.35;4.22;;;26.10;8.10;;;;;;5034693;28;20482;-75
2023/07/16 11:19:02;;;;;;;12.10;4.57;;;25.90;8.60;;;;;;5038225;28;20460;-75
2023/07/16 11:21:28;;;;;;;17.33;4.83;;;25.60;8.80;;;;;;5039397;28;20387;-74
2023/07/16 11:23:53;;;;;;;14.60;4.90;;;25.20;10.10;;;;;;5036367;28;20394;-74
2023/07/16 11:26:19;;;;;;;8.85;4.15;;;25.20;10.00;;;;;;5036137;28;20386;-73
2023/07/16 11:28:44;;;;;;;8.03;4.53;;;25.10;10.00;;;;;;5036973;28;20433;-73
2023/07/16 11:31:15;;;;;;;10.83;4.90;;;25.30;9.70;;;;;;5038639;28;20616;-74
2023/07/16 11:33:47;;;;;;;9.27;4.20;;;25.20;9.70;;;;;;5036066;28;20394;-74
2023/07/16 11:36:13;;;;;;;12.40;4.90;;;25.20;9.60;;;;;;5035063;28;20457;-74
2023/07/16 11:38:39;;;;;;;11.50;4.60;;;25.20;10.00;;;;;;5035277;28;20387;-74
2023/07/16 11:41:05;;;;;;;10.88;4.47;;;25.30;9.60;;;;;;5036235;28;20387;-75
2023/07/16 11:43:39;;;;;;;14.50;4.77;;;25.60;9.00;;;;;;5039248;28;20387;-75
2023/07/16 11:46:15;;;;;;;11.23;4.50;;;25.70;9.40;;;;;;5040614;28;20406;-73
2023/07/16 11:48:41;;;;;;;9.07;3.90;;;25.40;9.20;;;;;;5036751;28;20383;-74
2023/07/16 11:51:07;;;;;;;11.67;4.13;;;25.30;9.90;;;;;;5039223;28;20434;-74
2023/07/16 11:53:32;;;;;;;11.57;4.32;;;25.70;10.00;;;;;;5039284;28;20747;-73
2023/07/16 11:55:58;;;;;;;10.30;3.90;;;26.10;9.00;;;;;;5033868;28;20383;-75
2023/07/16 11:58:23;;;;;;;11.10;4.40;;;25.90;8.40;;;;;;5040374;28;20371;-74
2023/07/16 12:00:50;;;;;;;14.63;4.80;;;25.50;9.90;;;;;;5037581;28;20399;-74
2023/07/16 12:03:16;;;;;;;12.40;4.25;;;25.70;9.60;;;;;;5036513;28;20384;-74
2023/07/16 12:05:42;;;;;;;11.27;4.07;;;25.90;8.70;;;;;;5040294;28;20397;-73
2023/07/16 12:08:13;;;;;;;11.83;4.10;;;26.30;8.50;;;;;;5038614;28;20398;-73
2023/07/16 12:10:42;;;;;;;8.25;4.10;;;26.60;8.50;;;;;;5033629;28;20422;-73
2023/07/16 12:13:08;;;;;;;9.18;4.60;;;26.50;8.00;;;;;;5034973;28;20843;-73
2023/07/16 12:15:33;;;;;;;10.27;4.70;;;26.40;8.20;;;;;;5035352;28;20481;-73
2023/07/16 12:17:59;;;;;;;11.25;4.28;;;26.40;7.90;;;;;;5035406;28;20440;-73
2023/07/16 12:20:25;;;;;;;12.40;4.43;;;26.20;8.50;;;;;;5036122;28;20422;-73
2023/07/16 12:22:50;;;;;;;10.45;4.00;;;26.50;8.10;;;;;;5037278;28;20383;-73
2023/07/16 12:25:18;;;;;;;8.40;3.80;;;26.60;7.10;;;;;;5029196;28;20758;-74
2023/07/16 12:27:44;;;;;;;13.55;4.80;;;26.30;7.80;;;;;;5027980;28;20395;-74
2023/07/16 12:30:10;;;;;;;8.13;3.97;;;26.30;8.30;;;;;;5018626;28;20405;-72
2023/07/16 12:32:36;;;;;;;10.02;3.85;;;26.30;7.70;;;;;;5015929;28;20404;-73
2023/07/16 12:35:03;;;;;;;12.63;4.40;;;26.90;7.20;;;;;;5014608;28;20393;-73
2023/07/16 12:37:28;;;;;;;9.32;4.40;;;27.40;5.90;;;;;;5013643;28;20511;-73
2023/07/16 12:39:54;;;;;;;11.10;4.30;;;27.20;6.50;;;;;;5032225;28;20423;-73